createdAt,value
2017-12-28T00:00:30.670Z,86.79
2017-12-28T00:01:35.250Z,86.64
2017-12-28T00:02:39.502Z,87.04
2017-12-28T00:03:43.762Z,86.78
2017-12-28T00:04:48.128Z,86.53
2017-12-28T00:05:52.398Z,86.17
2017-12-28T00:06:56.639Z,86.19
2017-12-28T00:08:01.480Z,86.48
2017-12-28T00:09:06.179Z,86.45
2017-12-28T00:10:10.709Z,86.30
2017-12-28T00:11:15.192Z,85.98
2017-12-28T00:12:19.566Z,86.55
2017-12-28T00:13:23.783Z,86.40
2017-12-28T00:14:28.348Z,86.77
2017-12-28T00:15:33.075Z,87.05
2017-12-28T00:16:37.335Z,87.36
2017-12-28T00:17:42.317Z,87.91
2017-12-28T00:18:46.528Z,87.98
2017-12-28T00:19:50.811Z,88.53
2017-12-28T00:20:55.086Z,88.75
2017-12-28T00:21:59.352Z,88.72
2017-12-28T00:23:03.693Z,88.33
2017-12-28T00:24:10.406Z,88.37
2017-12-28T00:25:15.512Z,88.26
2017-12-28T00:26:19.662Z,88.13
2017-12-28T00:27:24.197Z,88.27
2017-12-28T00:28:29.667Z,87.94
2017-12-28T00:29:33.820Z,87.84
2017-12-28T00:30:38.422Z,88.09
2017-12-28T00:31:43.963Z,88.28
2017-12-28T00:32:48.174Z,87.97
2017-12-28T00:33:52.369Z,87.95
2017-12-28T00:34:56.671Z,87.86
2017-12-28T00:36:00.863Z,88.05
2017-12-28T00:37:05.092Z,88.14
2017-12-28T00:38:21.558Z,87.62
2017-12-28T00:39:25.753Z,88.28
2017-12-28T00:40:32.378Z,88.28
2017-12-28T00:41:36.630Z,87.97
2017-12-28T00:42:41.287Z,87.89
2017-12-28T00:43:45.508Z,87.98
2017-12-28T00:44:49.976Z,87.99
2017-12-28T00:45:54.488Z,87.97
2017-12-28T00:46:58.894Z,88.54
2017-12-28T00:48:03.182Z,88.66
2017-12-28T00:49:07.655Z,88.31
2017-12-28T00:50:12.965Z,88.81
2017-12-28T00:51:17.278Z,88.46
2017-12-28T00:52:21.494Z,88.51
2017-12-28T00:53:25.763Z,88.41
2017-12-28T00:54:29.987Z,88.72
2017-12-28T00:55:34.199Z,88.84
2017-12-28T00:56:39.146Z,89.00
2017-12-28T00:57:44.294Z,89.11
2017-12-28T00:58:48.461Z,88.95
2017-12-28T00:59:52.703Z,89.27
2017-12-28T01:00:57.246Z,89.21
2017-12-28T01:02:01.587Z,89.26
2017-12-28T01:03:06.118Z,89.44
2017-12-28T01:04:10.313Z,88.94
2017-12-28T01:05:14.494Z,88.91
2017-12-28T01:06:18.941Z,88.53
2017-12-28T01:07:23.172Z,88.60
2017-12-28T01:08:27.608Z,88.84
2017-12-28T01:09:32.950Z,88.35
2017-12-28T01:10:37.150Z,88.17
2017-12-28T01:11:42.369Z,88.29
2017-12-28T01:12:46.503Z,87.69
2017-12-28T01:13:51.070Z,88.09
2017-12-28T01:14:55.371Z,88.02
2017-12-28T01:16:00.095Z,87.98
2017-12-28T01:17:04.610Z,88.26
2017-12-28T01:18:08.913Z,87.79
2017-12-28T01:19:13.163Z,88.00
2017-12-28T01:20:17.330Z,88.14
2017-12-28T01:21:21.930Z,88.11
2017-12-28T01:22:26.150Z,87.69
2017-12-28T01:23:30.412Z,87.81
2017-12-28T01:24:34.740Z,87.45
2017-12-28T01:25:39.248Z,87.80
2017-12-28T01:26:44.385Z,87.78
2017-12-28T01:27:48.916Z,87.61
2017-12-28T01:28:53.302Z,87.85
2017-12-28T01:29:57.604Z,87.54
2017-12-28T01:31:02.391Z,87.51
2017-12-28T01:32:06.644Z,87.73
2017-12-28T01:33:11.123Z,87.52
2017-12-28T01:34:15.675Z,87.40
2017-12-28T01:35:20.266Z,87.58
2017-12-28T01:36:24.512Z,87.87
2017-12-28T01:37:29.278Z,87.37
2017-12-28T01:38:34.505Z,87.37
2017-12-28T01:39:38.758Z,87.47
2017-12-28T01:40:45.260Z,87.22
2017-12-28T01:41:49.549Z,87.55
2017-12-28T01:42:53.752Z,87.81
2017-12-28T01:43:58.157Z,87.87
2017-12-28T01:45:03.709Z,87.94
2017-12-28T01:46:11.653Z,87.99
2017-12-28T01:47:15.983Z,87.94
2017-12-28T01:48:20.306Z,88.02
2017-12-28T01:49:25.017Z,88.34
2017-12-28T01:50:29.885Z,88.17
2017-12-28T01:51:34.153Z,88.45
2017-12-28T01:52:38.434Z,88.60
2017-12-28T01:53:42.922Z,88.52
2017-12-28T01:54:47.178Z,88.58
2017-12-28T01:55:51.363Z,88.84
2017-12-28T01:56:55.681Z,88.98
2017-12-28T01:58:00.203Z,89.21
2017-12-28T01:59:04.380Z,89.06
2017-12-28T02:00:08.985Z,89.11
2017-12-28T02:01:13.450Z,89.27
2017-12-28T02:02:17.851Z,89.27
2017-12-28T02:03:22.863Z,89.34
2017-12-28T02:04:27.398Z,89.55
2017-12-28T02:05:31.663Z,89.29
2017-12-28T02:06:35.929Z,89.18
2017-12-28T02:07:40.096Z,89.19
2017-12-28T02:08:44.376Z,89.25
2017-12-28T02:09:48.730Z,89.59
2017-12-28T02:10:53.341Z,89.61
2017-12-28T02:11:57.609Z,89.86
2017-12-28T02:13:01.871Z,89.57
2017-12-28T02:14:06.084Z,89.95
2017-12-28T02:15:10.294Z,89.50
2017-12-28T02:16:14.781Z,89.14
2017-12-28T02:17:19.099Z,88.83
2017-12-28T02:18:23.283Z,88.57
2017-12-28T02:19:27.577Z,88.62
2017-12-28T02:20:32.791Z,88.49
2017-12-28T02:21:37.051Z,88.47
2017-12-28T02:26:02.201Z,88.61
2017-12-28T02:27:06.360Z,88.79
2017-12-28T02:28:10.531Z,88.52
2017-12-28T02:29:14.737Z,88.30
2017-12-28T02:30:18.955Z,88.42
2017-12-28T02:31:23.215Z,88.33
2017-12-28T02:32:27.392Z,88.39
2017-12-28T02:33:31.514Z,88.11
2017-12-28T02:34:35.801Z,87.98
2017-12-28T02:35:39.982Z,88.05
2017-12-28T02:36:44.642Z,88.32
2017-12-28T02:37:48.837Z,88.64
2017-12-28T02:38:53.675Z,88.39
2017-12-28T02:39:58.840Z,88.39
2017-12-28T02:41:03.056Z,88.15
2017-12-28T02:42:07.197Z,88.17
2017-12-28T02:43:11.370Z,88.06
2017-12-28T02:44:15.540Z,88.17
2017-12-28T02:45:19.788Z,88.23
2017-12-28T02:46:24.097Z,88.26
2017-12-28T02:47:28.279Z,88.33
2017-12-28T02:48:32.483Z,87.79
2017-12-28T02:49:36.702Z,87.70
2017-12-28T02:50:41.409Z,87.23
2017-12-28T02:51:45.534Z,86.96
2017-12-28T02:52:49.698Z,86.85
2017-12-28T02:53:54.302Z,86.75
2017-12-28T02:54:58.862Z,86.96
2017-12-28T02:56:03.116Z,87.08
2017-12-28T02:57:07.311Z,86.71
2017-12-28T02:58:11.697Z,86.61
2017-12-28T02:59:15.933Z,86.42
2017-12-28T03:00:20.209Z,86.38
2017-12-28T03:01:32.753Z,86.20
2017-12-28T03:02:36.904Z,86.30
2017-12-28T03:03:41.061Z,86.29
2017-12-28T03:04:45.285Z,86.68
2017-12-28T03:05:49.447Z,87.27
2017-12-28T03:06:53.600Z,87.37
2017-12-28T03:07:57.787Z,87.70
2017-12-28T03:09:03.174Z,87.52
2017-12-28T03:10:07.321Z,87.88
2017-12-28T03:11:11.545Z,88.05
2017-12-28T03:12:15.709Z,87.83
2017-12-28T03:17:35.406Z,87.65
2017-12-28T03:18:40.543Z,87.91
2017-12-28T03:19:46.373Z,87.75
2017-12-28T03:20:50.884Z,87.52
2017-12-28T03:21:55.449Z,87.23
2017-12-28T03:23:00.134Z,87.50
2017-12-28T03:24:05.083Z,87.59
2017-12-28T03:25:09.876Z,87.63
2017-12-28T03:26:15.347Z,87.47
2017-12-28T03:27:20.128Z,87.75
2017-12-28T03:28:26.263Z,87.76
2017-12-28T03:29:31.772Z,87.56
2017-12-28T03:30:39.547Z,87.52
2017-12-28T03:31:47.394Z,87.90
2017-12-28T03:32:53.164Z,88.11
2017-12-28T03:34:05.876Z,88.21
2017-12-28T03:35:10.289Z,88.31
2017-12-28T03:36:14.590Z,88.17
2017-12-28T03:37:19.823Z,88.37
2017-12-28T03:38:24.126Z,87.95
2017-12-28T03:39:29.927Z,87.65
2017-12-28T03:40:35.560Z,88.29
2017-12-28T03:41:51.244Z,88.25
2017-12-28T03:42:55.392Z,88.08
2017-12-28T03:44:00.052Z,87.77
2017-12-28T03:45:06.509Z,86.96
2017-12-28T03:46:10.754Z,86.55
2017-12-28T03:47:15.041Z,86.78
2017-12-28T03:48:19.545Z,86.99
2017-12-28T03:49:26.245Z,87.03
2017-12-28T03:50:30.406Z,87.05
2017-12-28T03:51:34.609Z,87.58
2017-12-28T03:52:38.961Z,87.75
2017-12-28T03:53:44.356Z,88.03
2017-12-28T03:54:48.593Z,88.49
2017-12-28T03:55:52.861Z,88.39
2017-12-28T03:56:57.066Z,88.49
2017-12-28T03:58:01.268Z,88.82
2017-12-28T03:59:05.572Z,89.06
2017-12-28T04:00:10.127Z,88.79
2017-12-28T04:01:14.454Z,88.94
2017-12-28T04:02:18.648Z,89.03
2017-12-28T04:03:22.926Z,89.19
2017-12-28T04:04:27.730Z,89.35
2017-12-28T04:05:32.464Z,89.25
2017-12-28T04:06:36.970Z,89.20
2017-12-28T04:07:48.298Z,89.41
2017-12-28T04:08:56.410Z,89.02
2017-12-28T04:10:00.628Z,89.05
2017-12-28T04:11:05.621Z,89.00
2017-12-28T04:12:10.653Z,89.39
2017-12-28T04:13:16.599Z,89.55
2017-12-28T04:14:20.798Z,89.49
2017-12-28T04:15:25.208Z,89.38
2017-12-28T04:16:29.881Z,89.41
2017-12-28T04:17:34.801Z,89.19
2017-12-28T04:18:39.334Z,88.96
2017-12-28T04:19:44.296Z,89.07
2017-12-28T04:20:48.425Z,89.52
2017-12-28T04:21:53.243Z,89.97
2017-12-28T04:22:57.459Z,90.21
2017-12-28T04:24:02.019Z,90.70
2017-12-28T04:25:06.226Z,90.56
2017-12-28T04:26:16.611Z,90.47
2017-12-28T04:27:20.907Z,90.15
2017-12-28T04:28:25.150Z,89.95
2017-12-28T04:29:30.245Z,90.02
2017-12-28T04:30:35.786Z,90.23
2017-12-28T04:31:40.241Z,90.46
2017-12-28T04:32:44.449Z,90.47
2017-12-28T04:33:51.495Z,89.62
2017-12-28T04:34:55.711Z,89.74
2017-12-28T04:35:59.843Z,89.88
2017-12-28T04:37:04.517Z,89.78
2017-12-28T04:38:09.574Z,90.36
2017-12-28T04:39:15.189Z,89.79
2017-12-28T04:40:19.554Z,89.56
2017-12-28T04:41:23.664Z,90.23
2017-12-28T04:42:28.459Z,90.01
2017-12-28T04:43:32.611Z,89.77
2017-12-28T04:44:37.486Z,89.70
2017-12-28T04:45:48.784Z,89.68
2017-12-28T04:46:53.830Z,89.44
2017-12-28T04:47:58.830Z,89.55
2017-12-28T04:49:03.932Z,89.60
2017-12-28T04:50:08.567Z,89.38
2017-12-28T04:51:13.391Z,89.62
2017-12-28T04:52:18.264Z,89.81
2017-12-28T04:53:23.091Z,89.67
2017-12-28T04:54:28.237Z,90.08
2017-12-28T04:55:34.154Z,90.16
2017-12-28T04:56:38.954Z,90.23
2017-12-28T04:57:45.136Z,89.33
2017-12-28T04:58:49.894Z,89.40
2017-12-28T04:59:55.420Z,89.50
2017-12-28T05:01:01.121Z,89.74
2017-12-28T05:02:06.137Z,89.97
2017-12-28T05:03:10.982Z,90.07
2017-12-28T05:04:16.108Z,90.36
2017-12-28T05:05:21.611Z,90.54
2017-12-28T05:06:26.510Z,90.37
2017-12-28T05:07:32.643Z,89.96
2017-12-28T05:08:37.756Z,90.01
2017-12-28T05:09:43.673Z,90.74
2017-12-28T05:10:48.463Z,90.39
2017-12-28T05:11:52.753Z,90.20
2017-12-28T05:12:57.483Z,90.10
2017-12-28T05:14:02.480Z,90.15
2017-12-28T05:15:09.849Z,90.16
2017-12-28T05:16:14.594Z,90.56
2017-12-28T05:17:19.420Z,90.41
2017-12-28T05:18:27.986Z,90.26
2017-12-28T05:19:32.247Z,90.69
2017-12-28T05:20:36.751Z,90.53
2017-12-28T05:21:41.637Z,90.27
2017-12-28T05:22:45.779Z,90.40
2017-12-28T05:23:50.490Z,90.20
2017-12-28T05:24:54.695Z,90.38
2017-12-28T05:25:59.551Z,90.11
2017-12-28T05:27:04.679Z,89.76
2017-12-28T05:28:09.702Z,89.75
2017-12-28T05:29:14.712Z,89.90
2017-12-28T05:30:19.562Z,90.29
2017-12-28T05:31:25.713Z,90.07
2017-12-28T05:32:29.986Z,90.22
2017-12-28T05:33:34.860Z,90.00
2017-12-28T05:34:39.177Z,89.91
2017-12-28T05:35:49.033Z,90.03
2017-12-28T05:36:54.022Z,90.24
2017-12-28T05:37:59.856Z,89.76
2017-12-28T05:39:05.243Z,89.67
2017-12-28T05:40:10.756Z,89.75
2017-12-28T05:41:15.065Z,89.68
2017-12-28T05:42:20.592Z,89.56
2017-12-28T05:43:25.425Z,89.59
2017-12-28T05:44:31.398Z,89.54
2017-12-28T05:45:36.455Z,89.68
2017-12-28T05:46:42.148Z,89.46
2017-12-28T05:47:49.971Z,89.71
2017-12-28T05:48:56.810Z,89.84
2017-12-28T05:50:01.114Z,89.57
2017-12-28T05:51:05.790Z,89.49
2017-12-28T05:52:10.492Z,89.57
2017-12-28T05:53:15.972Z,89.62
2017-12-28T05:54:21.034Z,90.00
2017-12-28T05:55:25.348Z,89.58
2017-12-28T05:56:30.466Z,89.80
2017-12-28T05:57:36.326Z,89.76
2017-12-28T05:58:40.603Z,89.95
2017-12-28T05:59:51.468Z,89.86
2017-12-28T06:00:56.750Z,90.19
2017-12-28T06:02:01.936Z,90.02
2017-12-28T06:03:07.757Z,90.09
2017-12-28T06:04:13.920Z,90.08
2017-12-28T06:05:18.965Z,90.48
2017-12-28T06:06:23.962Z,90.31
2017-12-28T06:07:29.375Z,90.31
2017-12-28T06:08:33.839Z,90.08
2017-12-28T06:09:39.655Z,90.09
2017-12-28T06:10:44.935Z,90.11
2017-12-28T06:11:49.472Z,90.03
2017-12-28T06:12:55.142Z,89.96
2017-12-28T06:14:00.447Z,90.02
2017-12-28T06:15:06.809Z,89.56
2017-12-28T06:16:13.358Z,89.24
2017-12-28T06:17:17.619Z,89.35
2017-12-28T06:18:23.298Z,89.34
2017-12-28T06:19:29.216Z,89.18
2017-12-28T06:20:33.863Z,89.49
2017-12-28T06:21:39.250Z,89.54
2017-12-28T06:22:45.718Z,89.21
2017-12-28T06:23:51.836Z,89.13
2017-12-28T06:24:57.759Z,88.73
2017-12-28T06:26:06.833Z,88.52
2017-12-28T06:27:12.009Z,88.72
2017-12-28T06:28:16.190Z,89.10
2017-12-28T06:29:20.476Z,88.50
2017-12-28T06:30:26.418Z,88.76
2017-12-28T06:31:34.254Z,88.51
2017-12-28T06:32:39.008Z,88.19
2017-12-28T06:33:44.405Z,88.26
2017-12-28T06:34:49.394Z,88.56
2017-12-28T06:35:54.038Z,89.03
2017-12-28T06:36:58.915Z,89.12
2017-12-28T06:38:03.252Z,89.38
2017-12-28T06:39:08.201Z,89.71
2017-12-28T06:40:18.297Z,89.83
2017-12-28T06:41:23.147Z,90.11
2017-12-28T06:42:28.722Z,90.42
2017-12-28T06:43:33.887Z,90.68
2017-12-28T06:44:38.834Z,90.79
2017-12-28T06:45:43.987Z,90.97
2017-12-28T06:46:48.903Z,91.09
2017-12-28T06:47:53.916Z,91.29
2017-12-28T06:48:59.619Z,91.47
2017-12-28T06:50:05.092Z,91.54
2017-12-28T06:51:10.273Z,91.76
2017-12-28T06:52:15.547Z,91.88
2017-12-28T06:53:21.062Z,91.89
2017-12-28T06:54:27.858Z,91.93
2017-12-28T06:55:33.812Z,92.17
2017-12-28T06:56:39.647Z,92.20
2017-12-28T06:57:44.882Z,92.29
2017-12-28T06:58:49.779Z,92.42
2017-12-28T06:59:54.687Z,92.39
2017-12-28T07:00:59.087Z,92.54
2017-12-28T07:02:03.308Z,92.45
2017-12-28T07:03:07.614Z,92.58
2017-12-28T07:04:11.792Z,92.67
2017-12-28T07:05:16.694Z,92.68
2017-12-28T07:06:23.779Z,92.60
2017-12-28T07:07:29.580Z,92.68
2017-12-28T07:08:33.853Z,92.56
2017-12-28T07:09:38.054Z,92.65
2017-12-28T07:10:43.958Z,92.65
2017-12-28T07:11:48.258Z,92.78
2017-12-28T07:12:54.877Z,92.84
2017-12-28T07:13:59.014Z,92.75
2017-12-28T07:15:06.585Z,92.78
2017-12-28T07:16:11.956Z,92.93
2017-12-28T07:17:16.731Z,92.92
2017-12-28T07:18:21.015Z,93.00
2017-12-28T07:19:25.994Z,92.87
2017-12-28T07:20:30.256Z,92.73
2017-12-28T07:21:35.355Z,92.86
2017-12-28T07:22:40.901Z,93.08
2017-12-28T07:23:45.425Z,93.11
2017-12-28T07:24:50.950Z,93.22
2017-12-28T07:25:55.209Z,93.26
2017-12-28T07:27:02.281Z,93.19
2017-12-28T07:28:06.577Z,93.06
2017-12-28T07:29:11.671Z,92.92
2017-12-28T07:30:16.149Z,92.85
2017-12-28T07:31:20.440Z,92.96
2017-12-28T07:32:26.051Z,92.92
2017-12-28T07:33:31.455Z,92.93
2017-12-28T07:35:03.370Z,92.98
2017-12-28T07:36:07.482Z,93.00
2017-12-28T07:37:11.852Z,93.14
2017-12-28T07:38:16.049Z,93.08
2017-12-28T07:39:20.655Z,93.12
2017-12-28T07:40:25.321Z,93.12
2017-12-28T07:41:29.556Z,93.06
2017-12-28T07:42:33.743Z,92.94
2017-12-28T07:43:38.073Z,92.86
2017-12-28T07:44:42.785Z,93.04
2017-12-28T07:45:46.897Z,93.08
2017-12-28T07:46:51.731Z,93.08
2017-12-28T07:47:55.954Z,92.96
2017-12-28T07:49:00.313Z,92.88
2017-12-28T07:50:04.861Z,93.01
2017-12-28T07:51:10.546Z,93.00
2017-12-28T07:52:15.255Z,93.00
2017-12-28T07:53:30.578Z,93.03
2017-12-28T07:54:34.818Z,93.01
2017-12-28T07:55:39.470Z,92.96
2017-12-28T07:56:44.659Z,92.95
2017-12-28T07:57:49.835Z,92.89
2017-12-28T07:58:56.330Z,92.89
2017-12-28T08:00:00.677Z,92.80
2017-12-28T08:01:05.443Z,92.78
2017-12-28T08:02:09.589Z,92.76
2017-12-28T08:03:13.841Z,92.68
2017-12-28T08:04:19.541Z,92.55
2017-12-28T08:05:27.692Z,92.56
2017-12-28T08:06:34.899Z,92.45
2017-12-28T08:07:40.157Z,92.48
2017-12-28T08:08:45.587Z,92.54
2017-12-28T08:09:51.595Z,92.48
2017-12-28T08:10:57.134Z,92.52
2017-12-28T08:12:03.529Z,92.51
2017-12-28T08:13:08.290Z,92.49
2017-12-28T08:14:12.667Z,92.34
2017-12-28T08:15:17.509Z,92.27
2017-12-28T08:16:22.478Z,92.21
2017-12-28T08:17:27.525Z,92.19
2017-12-28T08:18:40.511Z,92.26
2017-12-28T08:19:44.975Z,92.22
2017-12-28T08:20:49.666Z,91.92
2017-12-28T08:21:54.396Z,91.70
2017-12-28T08:22:59.284Z,91.71
2017-12-28T08:24:05.398Z,91.60
2017-12-28T08:25:10.132Z,91.56
2017-12-28T08:26:14.440Z,91.43
2017-12-28T08:27:18.937Z,91.37
2017-12-28T08:28:24.236Z,91.45
2017-12-28T08:29:29.892Z,91.53
2017-12-28T08:30:34.480Z,91.63
2017-12-28T08:31:39.150Z,91.22
2017-12-28T08:32:44.340Z,91.24
2017-12-28T08:33:50.740Z,91.18
2017-12-28T08:34:55.251Z,91.20
2017-12-28T08:36:01.497Z,91.16
2017-12-28T08:37:06.127Z,91.09
2017-12-28T08:38:17.797Z,91.01
2017-12-28T08:39:23.137Z,90.88
2017-12-28T08:41:54.757Z,90.75
2017-12-28T08:43:00.987Z,90.72
2017-12-28T08:44:08.801Z,90.62
2017-12-28T08:45:18.678Z,90.50
2017-12-28T08:46:24.494Z,90.44
2017-12-28T08:47:35.908Z,90.15
2017-12-28T08:48:41.793Z,90.17
2017-12-28T08:49:47.336Z,90.23
2017-12-28T08:50:53.295Z,90.30
2017-12-28T08:51:58.414Z,90.39
2017-12-28T08:53:04.434Z,89.96
2017-12-28T08:54:09.578Z,90.00
2017-12-28T08:55:15.808Z,89.52
2017-12-28T08:56:20.402Z,89.35
2017-12-28T08:57:26.738Z,89.36
2017-12-28T08:58:32.797Z,89.62
2017-12-28T08:59:39.218Z,89.01
2017-12-28T09:00:46.105Z,88.79
2017-12-28T09:01:54.723Z,89.07
2017-12-28T09:02:59.192Z,89.17
2017-12-28T09:04:07.784Z,88.90
2017-12-28T09:05:13.149Z,88.38
2017-12-28T09:06:18.483Z,88.82
2017-12-28T09:07:23.925Z,88.68
2017-12-28T09:08:29.565Z,88.60
2017-12-28T09:09:34.111Z,87.83
2017-12-28T09:10:39.472Z,88.01
2017-12-28T09:17:10.761Z,87.11
2017-12-28T09:18:17.098Z,87.00
2017-12-28T09:19:22.786Z,86.99
2017-12-28T09:20:30.201Z,87.05
2017-12-28T09:21:36.683Z,87.01
2017-12-28T09:22:41.846Z,86.28
2017-12-28T09:23:50.526Z,86.16
2017-12-28T09:24:57.013Z,86.02
2017-12-28T09:26:11.142Z,86.28
2017-12-28T09:27:19.214Z,86.47
2017-12-28T09:28:27.084Z,86.47
2017-12-28T09:29:39.157Z,86.40
2017-12-28T09:30:51.219Z,86.36
2017-12-28T09:31:56.128Z,86.37
2017-12-28T09:33:01.330Z,86.07
2017-12-28T09:34:06.844Z,85.50
2017-12-28T09:35:12.723Z,85.57
2017-12-28T09:36:18.419Z,85.40
2017-12-28T09:37:25.843Z,85.45
2017-12-28T09:38:31.309Z,85.78
2017-12-28T09:39:37.111Z,85.89
2017-12-28T09:40:42.000Z,85.88
2017-12-28T09:41:50.946Z,85.60
2017-12-28T09:42:56.151Z,85.52
2017-12-28T09:44:01.630Z,85.69
2017-12-28T09:45:08.107Z,85.93
2017-12-28T09:46:13.392Z,86.19
2017-12-28T09:47:18.670Z,85.78
2017-12-28T09:48:23.770Z,85.76
2017-12-28T09:49:29.964Z,86.25
2017-12-28T09:50:35.525Z,86.41
2017-12-28T09:51:43.483Z,86.61
2017-12-28T09:52:50.407Z,86.35
2017-12-28T09:53:55.226Z,86.08
2017-12-28T09:55:00.052Z,86.28
2017-12-28T09:56:07.395Z,86.70
2017-12-28T09:57:12.358Z,86.23
2017-12-28T09:58:18.094Z,86.21
2017-12-28T09:59:23.188Z,85.97
2017-12-28T10:00:37.177Z,86.13
2017-12-28T10:01:43.475Z,85.94
2017-12-28T10:02:49.962Z,85.73
2017-12-28T10:03:56.419Z,86.33
2017-12-28T10:05:11.577Z,86.00
2017-12-28T10:06:17.649Z,85.64
2017-12-28T10:07:23.297Z,85.76
2017-12-28T10:08:30.059Z,85.82
2017-12-28T10:09:36.760Z,85.88
2017-12-28T10:10:48.689Z,85.58
2017-12-28T10:12:03.935Z,85.59
2017-12-28T10:13:10.469Z,85.20
2017-12-28T10:14:15.799Z,85.08
2017-12-28T10:15:20.985Z,84.70
2017-12-28T10:16:26.616Z,82.82
2017-12-28T10:17:32.338Z,81.95
2017-12-28T10:18:46.863Z,81.62
2017-12-28T10:19:54.648Z,80.31
2017-12-28T10:21:00.471Z,80.50
2017-12-28T10:22:06.800Z,81.02
2017-12-28T10:23:22.252Z,80.01
2017-12-28T10:24:28.481Z,79.77
2017-12-28T10:25:35.244Z,79.36
2017-12-28T10:26:48.072Z,79.86
2017-12-28T10:27:53.291Z,79.22
2017-12-28T10:28:59.360Z,79.71
2017-12-28T10:30:09.030Z,80.21
2017-12-28T10:31:16.837Z,79.97
2017-12-28T10:32:24.434Z,78.66
2017-12-28T10:33:31.198Z,78.91
2017-12-28T10:34:37.750Z,78.62
2017-12-28T10:35:45.092Z,78.74
2017-12-28T10:36:50.888Z,78.71
2017-12-28T10:37:57.588Z,78.28
2017-12-28T10:39:05.562Z,77.53
2017-12-28T10:40:31.063Z,76.45
2017-12-28T10:41:40.115Z,75.99
2017-12-28T10:42:46.712Z,76.22
2017-12-28T10:43:54.717Z,76.33
2017-12-28T10:45:03.412Z,75.20
2017-12-28T10:46:11.819Z,75.67
2017-12-28T10:47:18.946Z,75.28
2017-12-28T10:48:25.792Z,74.64
2017-12-28T10:49:31.818Z,75.45
2017-12-28T10:50:38.176Z,75.17
2017-12-28T10:51:47.660Z,74.48
2017-12-28T10:52:53.665Z,74.42
2017-12-28T10:53:59.414Z,74.23
2017-12-28T10:55:04.668Z,74.10
2017-12-28T10:56:20.523Z,73.34
2017-12-28T10:57:25.564Z,73.59
2017-12-28T10:58:31.133Z,72.67
2017-12-28T10:59:35.903Z,74.03
2017-12-28T11:00:40.493Z,73.13
2017-12-28T11:01:46.238Z,73.15
2017-12-28T11:02:55.624Z,71.91
2017-12-28T11:04:01.078Z,71.54
2017-12-28T11:05:07.160Z,71.75
2017-12-28T11:06:12.702Z,71.66
2017-12-28T11:07:18.442Z,71.39
2017-12-28T11:08:34.622Z,70.13
2017-12-28T11:09:41.501Z,70.18
2017-12-28T11:10:47.022Z,69.33
2017-12-28T11:11:52.547Z,70.00
2017-12-28T11:12:57.290Z,70.55
2017-12-28T11:14:02.327Z,70.15
2017-12-28T11:15:08.042Z,70.57
2017-12-28T11:16:18.455Z,70.39
2017-12-28T11:17:23.243Z,70.09
2017-12-28T11:18:29.079Z,69.53
2017-12-28T11:19:33.630Z,69.37
2017-12-28T11:20:49.387Z,68.96
2017-12-28T11:21:54.416Z,70.32
2017-12-28T11:23:00.702Z,70.07
2017-12-28T11:24:10.990Z,68.59
2017-12-28T11:25:19.420Z,69.54
2017-12-28T11:26:25.413Z,68.60
2017-12-28T11:27:44.954Z,68.35
2017-12-28T11:28:49.820Z,68.35
2017-12-28T11:29:55.048Z,68.10
2017-12-28T11:30:59.805Z,68.19
2017-12-28T11:32:05.758Z,67.69
2017-12-28T11:33:10.812Z,68.51
2017-12-28T11:35:16.325Z,67.34
2017-12-28T11:36:21.026Z,67.03
2017-12-28T11:37:26.160Z,67.51
2017-12-28T11:38:30.617Z,67.18
2017-12-28T11:39:35.757Z,66.71
2017-12-28T11:40:40.716Z,66.24
2017-12-28T11:41:44.879Z,67.06
2017-12-28T11:42:49.557Z,67.20
2017-12-28T11:43:54.058Z,67.50
2017-12-28T11:44:58.616Z,68.20
2017-12-28T11:46:08.313Z,67.28
2017-12-28T11:47:12.786Z,67.17
2017-12-28T11:48:51.034Z,67.98
2017-12-28T11:50:19.941Z,68.67
2017-12-28T11:51:31.023Z,67.20
2017-12-28T11:52:35.811Z,68.36
2017-12-28T11:53:44.074Z,68.19
2017-12-28T11:54:48.614Z,67.28
2017-12-28T11:55:56.845Z,67.18
2017-12-28T11:57:02.710Z,66.18
2017-12-28T11:58:07.066Z,64.86
2017-12-28T11:59:15.257Z,67.09
2017-12-28T12:00:23.833Z,67.96
2017-12-28T12:01:32.015Z,67.01
2017-12-28T12:02:40.866Z,66.74
2017-12-28T12:03:49.533Z,66.08
2017-12-28T12:04:55.019Z,66.82
2017-12-28T12:05:59.693Z,67.14
2017-12-28T12:07:04.209Z,67.08
2017-12-28T12:08:10.942Z,67.32
2017-12-28T12:09:18.439Z,67.51
2017-12-28T12:10:23.493Z,66.80
2017-12-28T12:11:28.257Z,67.39
2017-12-28T12:12:32.564Z,65.69
2017-12-28T12:13:36.952Z,65.97
2017-12-28T12:14:41.172Z,66.08
2017-12-28T12:15:46.351Z,66.23
2017-12-28T12:16:50.837Z,66.70
2017-12-28T12:17:55.375Z,68.12
2017-12-28T12:18:59.521Z,66.79
2017-12-28T12:20:03.690Z,67.80
2017-12-28T12:21:07.949Z,69.38
2017-12-28T12:22:12.156Z,71.06
2017-12-28T12:23:16.406Z,71.68
2017-12-28T12:24:24.571Z,72.13
2017-12-28T12:25:28.822Z,72.17
2017-12-28T12:26:33.342Z,73.33
2017-12-28T12:27:37.484Z,73.53
2017-12-28T12:28:41.630Z,73.11
2017-12-28T12:29:46.882Z,71.96
2017-12-28T12:30:51.671Z,72.81
2017-12-28T12:31:55.954Z,73.60
2017-12-28T12:33:00.420Z,72.91
2017-12-28T12:34:05.599Z,73.85
2017-12-28T12:35:09.886Z,73.51
2017-12-28T12:36:14.125Z,73.71
2017-12-28T12:37:18.344Z,73.61
2017-12-28T12:38:23.159Z,73.97
2017-12-28T12:39:27.308Z,73.52
2017-12-28T12:40:32.925Z,73.76
2017-12-28T12:41:37.546Z,71.56
2017-12-28T12:42:42.601Z,71.36
2017-12-28T12:43:46.778Z,70.75
2017-12-28T12:44:51.019Z,70.29
2017-12-28T12:45:55.629Z,70.82
2017-12-28T12:46:59.824Z,71.39
2017-12-28T12:48:04.198Z,72.20
2017-12-28T12:49:08.380Z,71.76
2017-12-28T12:50:16.789Z,72.62
2017-12-28T12:51:21.087Z,71.32
2017-12-28T12:52:25.745Z,71.61
2017-12-28T12:53:31.032Z,71.57
2017-12-28T12:54:35.579Z,72.16
2017-12-28T12:55:42.428Z,71.91
2017-12-28T12:56:47.037Z,72.88
2017-12-28T12:57:51.786Z,73.37
2017-12-28T12:58:56.141Z,74.53
2017-12-28T13:00:00.317Z,74.96
2017-12-28T13:01:04.940Z,74.89
2017-12-28T13:02:10.959Z,75.08
2017-12-28T13:03:15.127Z,75.90
2017-12-28T13:04:19.438Z,76.29
2017-12-28T13:05:23.803Z,77.21
2017-12-28T13:06:29.148Z,77.21
2017-12-28T13:07:35.504Z,77.42
2017-12-28T13:08:40.878Z,77.73
2017-12-28T13:09:45.709Z,78.26
2017-12-28T13:10:50.431Z,78.49
2017-12-28T13:11:57.276Z,79.16
2017-12-28T13:13:02.228Z,79.88
2017-12-28T13:14:13.003Z,80.63
2017-12-28T13:15:18.765Z,81.43
2017-12-28T13:16:35.204Z,81.37
2017-12-28T13:17:39.759Z,81.76
2017-12-28T13:18:46.337Z,81.78
2017-12-28T13:19:50.766Z,81.85
2017-12-28T13:20:56.293Z,82.15
2017-12-28T13:22:10.807Z,82.35
2017-12-28T13:23:16.184Z,82.26
2017-12-28T13:24:20.770Z,81.61
2017-12-28T13:25:24.904Z,81.75
2017-12-28T13:26:29.212Z,81.72
2017-12-28T13:27:34.552Z,81.34
2017-12-28T13:28:38.689Z,81.64
2017-12-28T13:29:43.133Z,81.64
2017-12-28T13:30:47.625Z,81.63
2017-12-28T13:31:51.817Z,81.52
2017-12-28T13:32:56.412Z,80.88
2017-12-28T13:34:00.865Z,80.94
2017-12-28T13:35:06.554Z,81.87
2017-12-28T13:36:10.852Z,81.51
2017-12-28T13:37:15.863Z,81.82
2017-12-28T13:38:20.192Z,82.34
2017-12-28T13:39:24.391Z,82.32
2017-12-28T13:40:29.039Z,82.35
2017-12-28T13:41:33.583Z,82.51
2017-12-28T13:42:38.272Z,83.29
2017-12-28T13:43:43.122Z,82.90
2017-12-28T13:44:47.435Z,83.26
2017-12-28T13:45:52.022Z,83.23
2017-12-28T13:46:56.172Z,83.33
2017-12-28T13:48:00.434Z,83.71
2017-12-28T13:49:06.678Z,83.71
2017-12-28T13:50:11.820Z,83.42
2017-12-28T13:51:16.304Z,84.29
2017-12-28T13:52:20.718Z,84.47
2017-12-28T13:53:25.014Z,84.12
2017-12-28T13:54:31.009Z,84.73
2017-12-28T13:55:36.161Z,85.12
2017-12-28T13:56:40.307Z,84.91
2017-12-28T13:57:45.704Z,85.24
2017-12-28T13:58:49.855Z,84.53
2017-12-28T13:59:54.179Z,85.21
2017-12-28T14:00:58.456Z,84.95
2017-12-28T14:02:02.740Z,85.01
2017-12-28T14:03:06.934Z,84.34
2017-12-28T14:04:11.115Z,84.13
2017-12-28T14:05:15.369Z,84.58
2017-12-28T14:06:19.535Z,84.30
2017-12-28T14:07:23.995Z,84.34
2017-12-28T14:08:29.174Z,83.54
2017-12-28T14:09:33.855Z,83.69
2017-12-28T14:10:38.008Z,84.31
2017-12-28T14:11:43.068Z,83.86
2017-12-28T14:12:47.329Z,83.42
2017-12-28T14:13:51.946Z,83.71
2017-12-28T14:14:56.943Z,83.41
2017-12-28T14:16:02.507Z,83.45
2017-12-28T14:17:08.779Z,83.28
2017-12-28T14:18:12.909Z,83.41
2017-12-28T14:19:17.013Z,83.41
2017-12-28T14:20:21.709Z,83.91